LGAV/ATH METAR and TAF weather

Enter ICAO airport designator
Station Type Date Time Source
LGAV METAR 2019/12/10 05:50 UTC NOAA

LGAV 100550Z 26002KT 6000 -RA FEW008 SCT016 OVC025 12/10 Q1010 NOSIG


Station Type Date Time Source
LGAV Decoded METAR 2019/12/10 05:50 UTC NOAA

Athens Eleftherios Venizelos International Airport, Greece (LGAV) 37-56N 023-56E
Dec 10, 2019 - 12:50 AM EST / 2019.12.10 0550 UTC
Wind: from the W (260 degrees) at 2 MPH (2 KT):0
Visibility: 3 mile(s):0
Sky conditions: overcast
Weather: light rain
Temperature: 53 F (12 C)
Dew Point: 50 F (10 C)
Relative Humidity: 87%
Pressure (altimeter): 29.83 in. Hg (1010 hPa)
ob: LGAV 100550Z 26002KT 6000 -RA FEW008 SCT016 OVC025 12/10 Q1010 NOSIG
cycle: 6

Station Type Date Time Source
LGAV TAF 2019/12/10 06:12 UTC NOAA

TAF TAF LGAV 100500Z 1006/1106 VRB05KT 9999 SCT020 BKN060 PROB40
TEMPO 1006/1103 5000 RA PROB40
TEMPO 1006/1024 4000 TSRA SCT016 FEW018CB BKN025 OVC060
BECMG 1006/1008 15015KT
TEMPO 1012/1021 15015G25KT

Example: see airport list